createdAt,value
2023-05-22T00:00:13.248Z,14.77
2023-05-22T00:05:11.805Z,14.02
2023-05-22T00:07:40.058Z,14.18
2023-05-22T00:10:07.497Z,13.43
2023-05-22T00:12:34.736Z,14.60
2023-05-22T00:15:04.371Z,14.82
2023-05-22T00:20:08.064Z,18.92
2023-05-22T00:22:35.484Z,14.88
2023-05-22T00:25:03.757Z,13.18
2023-05-22T00:27:33.203Z,15.48
2023-05-22T00:30:03.611Z,15.05
2023-05-22T00:32:30.825Z,15.27
2023-05-22T00:34:58.047Z,13.27
2023-05-22T00:37:25.529Z,14.07
2023-05-22T00:39:52.658Z,14.52
2023-05-22T00:42:19.856Z,13.57
2023-05-22T00:44:49.822Z,15.48
2023-05-22T00:47:16.974Z,13.52
2023-05-22T00:49:46.767Z,14.48
2023-05-22T00:52:15.060Z,15.88
2023-05-22T00:54:42.715Z,14.98
2023-05-22T00:57:09.908Z,13.73
2023-05-22T00:59:37.112Z,13.82
2023-05-22T01:02:04.306Z,15.70
2023-05-22T01:04:32.660Z,15.90
2023-05-22T01:07:02.996Z,13.80
2023-05-22T01:09:30.948Z,13.77
2023-05-22T01:12:21.518Z,14.50
2023-05-22T01:15:17.457Z,14.80
2023-05-22T01:17:52.991Z,14.73
2023-05-22T01:20:35.586Z,16.45
2023-05-22T01:23:10.875Z,12.88
2023-05-22T01:25:41.092Z,13.80
2023-05-22T01:28:11.243Z,13.07
2023-05-22T01:30:47.017Z,16.27
2023-05-22T01:33:18.923Z,14.43
2023-05-22T01:35:47.303Z,16.88
2023-05-22T01:38:15.366Z,15.05
2023-05-22T01:40:45.191Z,14.00
2023-05-22T01:43:13.342Z,14.60
2023-05-22T01:45:40.525Z,12.60
2023-05-22T01:48:07.890Z,16.17
2023-05-22T01:50:35.154Z,14.27
2023-05-22T01:53:18.306Z,12.98
2023-05-22T01:55:47.750Z,16.88
2023-05-22T01:58:25.891Z,15.73
2023-05-22T02:00:54.759Z,15.45
2023-05-22T02:03:23.678Z,15.30
2023-05-22T02:05:53.019Z,15.48
2023-05-22T02:08:20.816Z,16.17
2023-05-22T02:10:51.568Z,15.90
2023-05-22T02:13:18.903Z,15.80
2023-05-22T02:15:47.148Z,18.13
2023-05-22T02:18:14.375Z,15.57
2023-05-22T02:20:42.477Z,16.52
2023-05-22T02:23:09.622Z,15.82
2023-05-22T02:25:36.965Z,14.55
2023-05-22T02:28:04.128Z,18.08
2023-05-22T02:30:31.255Z,17.95
2023-05-22T02:33:00.279Z,16.00
2023-05-22T02:35:27.662Z,15.35
2023-05-22T02:37:54.857Z,15.65
2023-05-22T02:40:21.997Z,15.70
2023-05-22T02:42:49.111Z,17.30
2023-05-22T02:45:16.268Z,15.00
2023-05-22T02:47:43.443Z,18.00
2023-05-22T02:50:10.756Z,17.27
2023-05-22T02:52:39.321Z,17.75
2023-05-22T02:55:07.394Z,17.25
2023-05-22T02:57:34.531Z,15.73
2023-05-22T03:00:01.681Z,14.25
2023-05-22T03:02:29.846Z,19.25
2023-05-22T03:04:59.627Z,19.25
2023-05-22T03:09:54.225Z,16.50
2023-05-22T03:12:23.821Z,17.48
2023-05-22T03:14:51.109Z,17.80
2023-05-22T03:17:18.324Z,19.23
2023-05-22T03:19:45.522Z,17.90
2023-05-22T03:22:12.716Z,17.90
2023-05-22T03:24:39.834Z,19.50
2023-05-22T03:27:07.631Z,15.98
2023-05-22T03:29:37.405Z,16.92
2023-05-22T03:32:04.754Z,15.13
2023-05-22T03:34:32.358Z,17.02
2023-05-22T03:36:59.628Z,18.05
2023-05-22T03:39:26.772Z,20.02
2023-05-22T03:41:53.889Z,15.70
2023-05-22T03:44:21.181Z,15.32
2023-05-22T03:46:48.372Z,17.02
2023-05-22T03:49:15.565Z,17.33
2023-05-22T03:51:44.999Z,17.70
2023-05-22T03:54:12.121Z,18.55
2023-05-22T03:56:39.301Z,16.23
2023-05-22T03:59:06.394Z,17.98
2023-05-22T04:01:33.498Z,20.70
2023-05-22T04:04:00.871Z,17.45
2023-05-22T04:06:28.052Z,19.42
2023-05-22T04:08:57.495Z,17.63
2023-05-22T04:11:24.706Z,18.60
2023-05-22T04:13:51.862Z,20.80
2023-05-22T04:16:19.148Z,18.52
2023-05-22T04:18:46.389Z,17.52
2023-05-22T04:21:13.849Z,17.98
2023-05-22T04:23:43.372Z,16.88
2023-05-22T04:26:10.593Z,18.33
2023-05-22T04:28:38.047Z,17.80
2023-05-22T04:31:06.462Z,17.92
2023-05-22T04:33:34.653Z,19.00
2023-05-22T04:36:02.782Z,18.75
2023-05-22T04:38:30.192Z,19.95
2023-05-22T04:41:00.331Z,17.20
2023-05-22T04:43:27.595Z,16.35
2023-05-22T04:45:54.906Z,16.30
2023-05-22T04:48:22.533Z,20.70
2023-05-22T04:50:50.231Z,20.90
2023-05-22T04:53:17.449Z,17.70
2023-05-22T04:55:46.059Z,15.23
2023-05-22T04:58:13.208Z,16.55
2023-05-22T05:00:40.702Z,19.67
2023-05-22T05:03:08.425Z,17.05
2023-05-22T05:05:37.962Z,18.30
2023-05-22T05:08:05.194Z,16.10
2023-05-22T05:10:32.310Z,19.35
2023-05-22T05:12:59.457Z,16.77
2023-05-22T05:15:27.556Z,17.10
2023-05-22T05:17:54.742Z,18.95
2023-05-22T05:20:21.953Z,18.10
2023-05-22T05:22:52.602Z,18.08
2023-05-22T05:25:19.764Z,17.23
2023-05-22T05:27:46.954Z,19.40
2023-05-22T05:30:14.193Z,18.90
2023-05-22T05:32:41.602Z,25.40
2023-05-22T05:35:09.009Z,18.92
2023-05-22T05:37:36.663Z,21.02
2023-05-22T05:40:06.462Z,20.40
2023-05-22T05:42:33.591Z,19.83
2023-05-22T05:45:03.041Z,20.95
2023-05-22T05:47:30.537Z,20.05
2023-05-22T05:49:58.829Z,20.08
2023-05-22T05:52:27.163Z,18.60
2023-05-22T05:54:54.311Z,21.08
2023-05-22T05:57:21.944Z,34.95
2023-05-22T05:59:49.700Z,22.15
2023-05-22T06:02:19.430Z,23.25
2023-05-22T06:04:49.869Z,26.55
2023-05-22T06:07:17.371Z,22.30
2023-05-22T06:09:44.483Z,19.27
2023-05-22T06:12:12.905Z,18.52
2023-05-22T06:14:40.632Z,19.50
2023-05-22T06:17:09.268Z,20.83
2023-05-22T06:19:36.612Z,28.00
2023-05-22T06:22:03.852Z,23.50
2023-05-22T06:24:32.462Z,25.83
2023-05-22T06:27:02.441Z,19.20
2023-05-22T06:29:31.805Z,23.98
2023-05-22T06:32:01.538Z,23.75
2023-05-22T06:34:29.743Z,22.15
2023-05-22T06:36:59.230Z,25.95
2023-05-22T06:39:29.775Z,29.73
2023-05-22T06:41:57.806Z,29.05
2023-05-22T06:44:27.411Z,36.13
2023-05-22T06:49:21.742Z,34.33
2023-05-22T06:51:49.200Z,26.92
2023-05-22T06:54:19.768Z,30.95
2023-05-22T06:56:51.361Z,27.90
2023-05-22T06:59:18.631Z,38.17
2023-05-22T07:01:45.893Z,31.13
2023-05-22T07:04:13.429Z,31.35
2023-05-22T07:06:41.815Z,29.42
2023-05-22T07:09:11.185Z,37.88
2023-05-22T07:11:38.399Z,34.75
2023-05-22T07:14:08.718Z,32.03
2023-05-22T07:16:36.934Z,39.42
2023-05-22T07:19:04.269Z,31.58
2023-05-22T07:21:32.483Z,37.88
2023-05-22T07:23:59.603Z,33.97
2023-05-22T07:26:29.922Z,33.10
2023-05-22T07:28:57.151Z,34.08
2023-05-22T07:31:24.374Z,37.40
2023-05-22T07:33:51.629Z,32.45
2023-05-22T07:36:19.120Z,37.65
2023-05-22T07:38:46.499Z,29.98
2023-05-22T07:41:14.042Z,31.42
2023-05-22T07:43:41.202Z,31.15
2023-05-22T07:46:09.458Z,36.78
2023-05-22T07:48:36.710Z,33.28
2023-05-22T07:51:03.911Z,34.00
2023-05-22T07:53:31.681Z,33.03
2023-05-22T07:55:58.835Z,32.38
2023-05-22T07:58:26.914Z,33.35
2023-05-22T08:00:54.469Z,34.47
2023-05-22T08:03:24.349Z,35.60
2023-05-22T08:05:51.792Z,36.17
2023-05-22T08:08:19.012Z,32.80
2023-05-22T08:10:58.304Z,34.38
2023-05-22T08:13:30.827Z,32.50
2023-05-22T08:16:00.634Z,33.65
2023-05-22T08:18:29.227Z,37.72
2023-05-22T08:20:57.060Z,36.00
2023-05-22T08:23:26.467Z,36.80
2023-05-22T08:25:53.596Z,33.90
2023-05-22T08:28:21.008Z,33.15
2023-05-22T08:30:48.251Z,37.30
2023-05-22T08:33:19.643Z,35.42
2023-05-22T08:35:46.823Z,39.10
2023-05-22T08:38:14.007Z,34.92
2023-05-22T08:40:43.265Z,35.10
2023-05-22T08:43:12.479Z,33.45
2023-05-22T08:45:42.415Z,30.17
2023-05-22T08:48:12.628Z,33.45
2023-05-22T08:50:43.664Z,32.80
2023-05-22T08:53:13.556Z,35.13
2023-05-22T08:55:40.904Z,32.25
2023-05-22T08:58:09.361Z,34.50
2023-05-22T09:00:36.682Z,30.60
2023-05-22T09:03:06.646Z,37.15
2023-05-22T09:05:34.197Z,34.50
2023-05-22T09:08:16.014Z,31.33
2023-05-22T09:10:47.330Z,34.80
2023-05-22T09:13:24.477Z,33.17
2023-05-22T09:15:51.611Z,30.40
2023-05-22T09:18:18.817Z,32.20
2023-05-22T09:20:48.216Z,39.55
2023-05-22T09:23:17.785Z,31.80
2023-05-22T09:25:45.587Z,29.73
2023-05-22T09:28:13.360Z,35.25
2023-05-22T09:30:42.372Z,33.60
2023-05-22T09:35:39.505Z,30.38
2023-05-22T09:38:06.784Z,31.05
2023-05-22T09:40:35.145Z,33.72
2023-05-22T09:43:05.131Z,36.00
2023-05-22T09:45:35.074Z,35.45
2023-05-22T09:48:02.360Z,37.45
2023-05-22T09:50:29.630Z,40.83
2023-05-22T09:52:57.632Z,34.70
2023-05-22T09:55:27.531Z,35.10
2023-05-22T09:57:55.339Z,39.58
2023-05-22T10:00:24.096Z,32.15
2023-05-22T10:02:55.074Z,34.80
2023-05-22T10:05:22.693Z,39.80
2023-05-22T10:07:51.135Z,35.17
2023-05-22T10:10:19.167Z,41.42
2023-05-22T10:12:53.356Z,47.72
2023-05-22T10:15:21.449Z,44.65
2023-05-22T10:17:51.662Z,43.38
2023-05-22T10:20:22.100Z,42.65
2023-05-22T10:22:49.284Z,43.58
2023-05-22T10:25:18.402Z,43.65
2023-05-22T10:27:45.989Z,37.47
2023-05-22T10:30:16.160Z,41.65
2023-05-22T10:32:47.520Z,40.95
2023-05-22T10:35:19.013Z,41.53
2023-05-22T10:38:04.375Z,45.55
2023-05-22T10:40:33.041Z,41.38
2023-05-22T10:43:01.138Z,42.87
2023-05-22T10:45:31.977Z,39.88
2023-05-22T10:48:06.216Z,32.65
2023-05-22T10:50:36.473Z,35.72
2023-05-22T10:53:20.112Z,36.45
2023-05-22T10:55:48.233Z,34.13
2023-05-22T10:58:15.977Z,38.00
2023-05-22T11:00:43.261Z,35.35
2023-05-22T11:03:18.027Z,34.65
2023-05-22T11:05:52.895Z,28.67
2023-05-22T11:08:26.167Z,28.13
2023-05-22T11:10:57.171Z,28.75
2023-05-22T11:13:29.249Z,30.52
2023-05-22T11:15:57.830Z,28.10
2023-05-22T11:18:25.435Z,28.52
2023-05-22T11:20:54.892Z,29.50
2023-05-22T11:25:51.658Z,25.90
2023-05-22T11:28:18.893Z,29.92
2023-05-22T11:30:46.812Z,29.20
2023-05-22T11:33:14.153Z,26.88
2023-05-22T11:35:41.539Z,25.63
2023-05-22T11:38:09.078Z,30.17
2023-05-22T11:40:36.459Z,32.80
2023-05-22T11:43:04.684Z,33.13
2023-05-22T11:45:31.950Z,36.83
2023-05-22T11:47:59.229Z,35.97
2023-05-22T11:50:41.041Z,31.33
2023-05-22T11:53:09.304Z,36.33
2023-05-22T11:55:36.429Z,42.78
2023-05-22T11:58:03.597Z,39.13
2023-05-22T12:00:31.973Z,42.30
2023-05-22T12:02:59.677Z,34.92
2023-05-22T12:05:27.049Z,43.75
2023-05-22T12:07:54.253Z,44.25
2023-05-22T12:10:21.500Z,43.42
2023-05-22T12:12:50.902Z,41.97
2023-05-22T12:17:45.135Z,40.30
2023-05-22T12:20:14.566Z,39.08
2023-05-22T12:25:19.967Z,31.45
2023-05-22T12:27:47.469Z,38.25
2023-05-22T12:30:17.680Z,37.42
2023-05-22T12:32:51.328Z,37.17
2023-05-22T12:35:19.129Z,32.45
2023-05-22T12:37:52.315Z,44.85
2023-05-22T12:40:19.896Z,33.92
2023-05-22T12:42:48.432Z,31.92
2023-05-22T12:45:17.625Z,39.67
2023-05-22T12:47:47.174Z,31.70
2023-05-22T12:50:16.820Z,36.08
2023-05-22T12:52:44.018Z,41.83
2023-05-22T12:55:11.416Z,44.22
2023-05-22T12:57:41.228Z,35.42
2023-05-22T13:00:11.293Z,30.13
2023-05-22T13:02:38.634Z,33.17
2023-05-22T13:05:06.212Z,37.05
2023-05-22T13:07:33.489Z,38.10
2023-05-22T13:10:00.628Z,38.05
2023-05-22T13:12:27.974Z,34.72
2023-05-22T13:14:55.177Z,39.50
2023-05-22T13:17:22.506Z,34.45
2023-05-22T13:19:49.696Z,34.75
2023-05-22T13:22:16.884Z,40.13
2023-05-22T13:24:43.736Z,37.13
2023-05-22T13:27:10.521Z,38.92
2023-05-22T13:29:39.452Z,38.63
2023-05-22T13:32:09.071Z,42.63
2023-05-22T13:34:35.863Z,35.72
2023-05-22T13:37:03.134Z,29.73
2023-05-22T13:39:29.852Z,32.72
2023-05-22T13:41:56.960Z,33.60
2023-05-22T13:44:24.069Z,33.10
2023-05-22T13:46:52.985Z,28.83
2023-05-22T13:49:20.390Z,28.02
2023-05-22T13:51:47.573Z,31.63
2023-05-22T13:54:26.927Z,28.77
2023-05-22T13:59:30.463Z,26.83
2023-05-22T14:02:02.580Z,29.20
2023-05-22T14:04:30.959Z,29.35
2023-05-22T14:07:01.166Z,28.95
2023-05-22T14:09:30.926Z,25.63
2023-05-22T14:11:58.134Z,27.92
2023-05-22T14:14:25.425Z,32.38
2023-05-22T14:16:52.806Z,31.10
2023-05-22T14:19:20.678Z,29.48
2023-05-22T14:21:53.435Z,25.33
2023-05-22T14:24:20.739Z,29.98
2023-05-22T14:26:48.102Z,27.45
2023-05-22T14:29:15.787Z,32.05
2023-05-22T14:31:51.791Z,24.90
2023-05-22T14:34:19.250Z,28.63
2023-05-22T14:36:46.848Z,22.52
2023-05-22T14:39:14.025Z,24.55
2023-05-22T14:41:41.203Z,28.35
2023-05-22T14:44:08.427Z,26.70
2023-05-22T14:46:35.866Z,21.52
2023-05-22T14:49:05.311Z,29.20
2023-05-22T14:51:32.481Z,21.67
2023-05-22T14:54:02.915Z,27.55
2023-05-22T14:56:30.061Z,28.33
2023-05-22T14:58:58.121Z,30.35
2023-05-22T15:01:25.370Z,29.83
2023-05-22T15:03:57.253Z,27.80
2023-05-22T15:06:24.384Z,30.83
2023-05-22T15:08:54.147Z,31.15
2023-05-22T15:11:21.972Z,30.95
2023-05-22T15:13:49.720Z,28.15
2023-05-22T15:16:16.916Z,27.08
2023-05-22T15:18:44.106Z,30.83
2023-05-22T15:21:11.882Z,36.58
2023-05-22T15:23:39.049Z,56.33
2023-05-22T15:26:07.076Z,33.58
2023-05-22T15:28:34.255Z,35.50
2023-05-22T15:31:01.423Z,31.35
2023-05-22T15:33:28.999Z,41.28
2023-05-22T15:35:56.218Z,32.50
2023-05-22T15:38:25.935Z,31.15
2023-05-22T15:40:53.097Z,38.17
2023-05-22T15:43:20.339Z,40.80
2023-05-22T15:45:50.873Z,34.45
2023-05-22T15:48:20.863Z,36.97
2023-05-22T15:50:48.032Z,38.70
2023-05-22T15:53:15.829Z,36.67
2023-05-22T15:55:45.567Z,36.17
2023-05-22T15:58:12.721Z,42.25
2023-05-22T16:00:41.329Z,53.67
2023-05-22T16:03:09.794Z,39.92
2023-05-22T16:05:40.662Z,39.40
2023-05-22T16:08:11.745Z,48.50
2023-05-22T16:10:41.579Z,42.55
2023-05-22T16:13:10.602Z,49.53
2023-05-22T16:15:39.825Z,49.47
2023-05-22T16:18:07.921Z,43.47
2023-05-22T16:20:38.624Z,49.75
2023-05-22T16:23:05.900Z,40.03
2023-05-22T16:25:33.019Z,41.20
2023-05-22T16:28:02.584Z,40.03
2023-05-22T16:30:29.734Z,47.00
2023-05-22T16:32:57.014Z,55.38
2023-05-22T16:35:24.355Z,45.28
2023-05-22T16:37:51.829Z,44.95
2023-05-22T16:40:19.084Z,42.42
2023-05-22T16:42:46.347Z,52.90
2023-05-22T16:45:16.005Z,43.58
2023-05-22T16:47:43.253Z,42.72
2023-05-22T16:50:13.035Z,48.28
2023-05-22T16:52:40.565Z,50.55
2023-05-22T16:55:08.082Z,51.72
2023-05-22T16:57:35.259Z,49.20
2023-05-22T17:00:03.644Z,48.72
2023-05-22T17:02:31.013Z,45.00
2023-05-22T17:04:58.373Z,52.22
2023-05-22T17:07:26.491Z,46.30
2023-05-22T17:09:53.647Z,49.38
2023-05-22T17:12:23.291Z,53.20
2023-05-22T17:14:50.410Z,48.72
2023-05-22T17:17:17.557Z,44.92
2023-05-22T17:19:44.721Z,40.67
2023-05-22T17:22:11.916Z,50.75
2023-05-22T17:24:39.305Z,47.15
2023-05-22T17:27:06.681Z,43.80
2023-05-22T17:29:33.940Z,45.95
2023-05-22T17:32:01.482Z,41.88
2023-05-22T17:34:28.681Z,44.55
2023-05-22T17:36:55.891Z,44.17
2023-05-22T17:39:23.430Z,45.92
2023-05-22T17:41:52.916Z,38.95
2023-05-22T17:46:47.278Z,38.60
2023-05-22T17:49:14.452Z,47.75
2023-05-22T17:51:42.101Z,39.25
2023-05-22T17:54:09.405Z,46.10
2023-05-22T17:56:37.394Z,50.50
2023-05-22T17:59:04.541Z,44.80
2023-05-22T18:01:32.040Z,39.15
2023-05-22T18:04:01.273Z,42.22
2023-05-22T18:06:29.197Z,41.10
2023-05-22T18:08:56.473Z,42.28
2023-05-22T18:11:26.061Z,41.58
2023-05-22T18:16:20.462Z,40.92
2023-05-22T18:18:47.950Z,39.80
2023-05-22T18:21:15.182Z,41.03
2023-05-22T18:23:42.427Z,35.35
2023-05-22T18:26:12.388Z,42.47
2023-05-22T18:28:42.586Z,43.30
2023-05-22T18:31:12.699Z,38.35
2023-05-22T18:33:40.316Z,39.05
2023-05-22T18:36:07.804Z,36.85
2023-05-22T18:38:35.038Z,40.35
2023-05-22T18:41:02.416Z,33.67
2023-05-22T18:43:29.745Z,40.30
2023-05-22T18:45:59.001Z,40.15
2023-05-22T18:48:29.126Z,43.33
2023-05-22T18:50:57.670Z,38.28
2023-05-22T18:53:27.734Z,33.75
2023-05-22T18:55:54.895Z,32.70
2023-05-22T18:58:22.136Z,34.92
2023-05-22T19:00:49.431Z,32.67
2023-05-22T19:03:16.693Z,33.33
2023-05-22T19:05:46.568Z,52.95
2023-05-22T19:08:13.764Z,33.70
2023-05-22T19:10:42.017Z,38.05
2023-05-22T19:13:11.626Z,35.13
2023-05-22T19:18:05.986Z,36.75
2023-05-22T19:20:34.922Z,31.73
2023-05-22T19:23:02.089Z,29.08
2023-05-22T19:25:29.371Z,29.10
2023-05-22T19:27:58.991Z,28.05
2023-05-22T19:30:28.422Z,33.00
2023-05-22T19:35:27.934Z,35.33
2023-05-22T19:40:22.185Z,34.63
2023-05-22T19:42:49.538Z,30.52
2023-05-22T19:45:17.552Z,31.58
2023-05-22T19:47:44.739Z,31.80
2023-05-22T19:50:12.421Z,27.70
2023-05-22T19:52:39.668Z,30.38
2023-05-22T19:55:07.053Z,28.52
2023-05-22T19:57:36.499Z,27.95
2023-05-22T20:02:34.131Z,29.13
2023-05-22T20:05:01.769Z,25.30
2023-05-22T20:07:29.276Z,28.13
2023-05-22T20:09:56.484Z,24.15
2023-05-22T20:12:23.640Z,19.50
2023-05-22T20:14:54.119Z,17.35
2023-05-22T20:17:22.654Z,16.00
2023-05-22T20:19:52.393Z,16.23
2023-05-22T20:22:19.628Z,13.13
2023-05-22T20:24:49.439Z,12.68
2023-05-22T20:27:19.277Z,8.50
2023-05-22T20:29:46.512Z,9.32
2023-05-22T20:32:13.749Z,8.63
2023-05-22T20:34:45.160Z,8.68
2023-05-22T20:37:13.649Z,9.27
2023-05-22T20:39:44.329Z,8.13
2023-05-22T20:42:13.002Z,10.10
2023-05-22T20:44:41.322Z,13.57
2023-05-22T20:47:11.306Z,12.25
2023-05-22T20:49:43.039Z,9.85
2023-05-22T20:52:10.267Z,9.25
2023-05-22T20:54:37.476Z,10.35
2023-05-22T20:57:04.742Z,8.32
2023-05-22T20:59:32.171Z,8.00
2023-05-22T21:02:01.997Z,9.30
2023-05-22T21:04:31.527Z,7.63
2023-05-22T21:06:59.922Z,7.65
2023-05-22T21:09:27.084Z,8.27
2023-05-22T21:11:54.254Z,8.60
2023-05-22T21:14:21.409Z,9.88
2023-05-22T21:16:48.635Z,8.63
2023-05-22T21:19:15.932Z,9.52
2023-05-22T21:21:43.205Z,9.48
2023-05-22T21:24:10.465Z,11.10
2023-05-22T21:26:37.689Z,8.98
2023-05-22T21:29:05.306Z,13.27
2023-05-22T21:31:34.645Z,10.57
2023-05-22T21:34:03.075Z,8.45
2023-05-22T21:36:31.464Z,10.15
2023-05-22T21:39:00.329Z,9.90
2023-05-22T21:41:27.786Z,10.48
2023-05-22T21:43:57.457Z,11.75
2023-05-22T21:46:24.803Z,12.70
2023-05-22T21:48:53.609Z,9.40
2023-05-22T21:51:23.122Z,11.70
2023-05-22T21:56:17.404Z,12.10
2023-05-22T21:58:44.548Z,13.43
2023-05-22T22:01:14.210Z,9.15
2023-05-22T22:03:41.434Z,10.18
2023-05-22T22:06:11.172Z,10.50
2023-05-22T22:08:38.384Z,9.63
2023-05-22T22:11:05.524Z,9.27
2023-05-22T22:13:37.391Z,14.35
2023-05-22T22:16:04.677Z,14.05
2023-05-22T22:18:37.943Z,12.35
2023-05-22T22:21:04.728Z,13.80
2023-05-22T22:23:33.584Z,14.15
2023-05-22T22:26:02.799Z,15.70
2023-05-22T22:28:29.570Z,13.05
2023-05-22T22:30:56.867Z,13.85
2023-05-22T22:33:30.254Z,13.73
2023-05-22T22:35:59.494Z,14.23
2023-05-22T22:38:27.624Z,12.50
2023-05-22T22:40:54.815Z,11.32
2023-05-22T22:43:21.989Z,12.95
2023-05-22T22:45:49.183Z,11.60
2023-05-22T22:48:16.684Z,18.60
2023-05-22T22:50:44.101Z,9.30
2023-05-22T22:53:11.316Z,12.38
2023-05-22T22:55:41.426Z,10.27
2023-05-22T22:58:09.542Z,7.70
2023-05-22T23:00:36.728Z,9.80
2023-05-22T23:03:03.983Z,11.77
2023-05-22T23:05:31.273Z,12.60
2023-05-22T23:08:01.904Z,10.57
2023-05-22T23:10:29.326Z,8.50
2023-05-22T23:12:56.584Z,8.10
2023-05-22T23:15:24.161Z,7.78
2023-05-22T23:17:52.125Z,8.30
2023-05-22T23:20:21.988Z,9.55
2023-05-22T23:22:49.136Z,7.88
2023-05-22T23:25:16.349Z,7.55
2023-05-22T23:27:43.621Z,8.38
2023-05-22T23:30:10.951Z,8.80
2023-05-22T23:32:38.119Z,9.40
2023-05-22T23:35:05.804Z,9.88
2023-05-22T23:37:32.985Z,8.13
2023-05-22T23:40:00.315Z,8.20
2023-05-22T23:42:27.494Z,8.20
2023-05-22T23:44:54.627Z,10.20
2023-05-22T23:47:21.903Z,6.03
2023-05-22T23:49:51.726Z,8.68
2023-05-22T23:52:18.846Z,7.13
2023-05-22T23:54:45.958Z,10.32
2023-05-22T23:57:13.130Z,8.88
2023-05-22T23:59:40.477Z,8.77
